Airport ID:K63S
Update Time (UTC):27/11/2022 19:43
Wind Speed (Knots):9
Wind Direction (Magnetic):260
Temperature (°C):2
Dew Point (°C):-8
Humidity (%):47
Altimeter (inHg):29.76
Density Altitude (Feet):
Visibility:10+
Clouds (Hundreds of feet):CLR
Present Weather:
METAR:METAR K63S 271940Z AUTO 28008KT 10SM CLR 02/M08 A2976 RMK A01

The data displayed is for advisory purposes only and is not to be used for flight planning or operations.